sensor_id;sensor_type;location;lat;lon;timestamp;P1;durP1;ratioP1;P2;durP2;ratioP2
57893;SDS011;43710;47.460;19.034;2022-12-07T05:02:47;23.80;;;17.45;;
57893;SDS011;43710;47.460;19.034;2022-12-07T05:05:50;26.90;;;18.48;;
57893;SDS011;43710;47.460;19.034;2022-12-07T05:08:52;24.00;;;16.95;;
57893;SDS011;43710;47.460;19.034;2022-12-07T05:11:54;24.10;;;17.40;;
57893;SDS011;43710;47.460;19.034;2022-12-07T05:14:56;26.05;;;18.00;;
57893;SDS011;43710;47.460;19.034;2022-12-07T05:17:59;24.67;;;18.15;;
57893;SDS011;43710;47.460;19.034;2022-12-07T05:21:01;26.33;;;18.65;;
57893;SDS011;43710;47.460;19.034;2022-12-07T05:24:04;23.33;;;17.05;;
57893;SDS011;43710;47.460;19.034;2022-12-07T05:27:07;25.67;;;18.08;;
57893;SDS011;43710;47.460;19.034;2022-12-07T05:30:09;22.37;;;17.42;;
57893;SDS011;43710;47.460;19.034;2022-12-07T05:33:11;23.25;;;16.73;;
57893;SDS011;43710;47.460;19.034;2022-12-07T05:36:14;23.48;;;17.92;;
57893;SDS011;43710;47.460;19.034;2022-12-07T05:39:16;23.92;;;17.37;;
57893;SDS011;43710;47.460;19.034;2022-12-07T05:42:18;24.92;;;17.92;;
57893;SDS011;43710;47.460;19.034;2022-12-07T05:45:20;22.62;;;17.50;;
57893;SDS011;43710;47.460;19.034;2022-12-07T05:48:23;23.87;;;16.40;;
57893;SDS011;43710;47.460;19.034;2022-12-07T05:51:26;23.73;;;17.40;;
57893;SDS011;43710;47.460;19.034;2022-12-07T05:54:28;23.60;;;17.98;;
57893;SDS011;43710;47.460;19.034;2022-12-07T05:57:30;21.52;;;17.00;;
57893;SDS011;43710;47.460;19.034;2022-12-07T06:00:32;22.95;;;17.98;;
57893;SDS011;43710;47.460;19.034;2022-12-07T06:03:35;21.12;;;17.08;;
57893;SDS011;43710;47.460;19.034;2022-12-07T06:06:37;22.17;;;17.65;;
57893;SDS011;43710;47.460;19.034;2022-12-07T06:09:39;22.33;;;17.23;;
57893;SDS011;43710;47.460;19.034;2022-12-07T06:12:42;25.37;;;18.23;;
57893;SDS011;43710;47.460;19.034;2022-12-07T06:15:45;25.58;;;18.05;;
57893;SDS011;43710;47.460;19.034;2022-12-07T06:18:47;22.87;;;17.67;;
57893;SDS011;43710;47.460;19.034;2022-12-07T06:21:49;25.48;;;18.65;;
57893;SDS011;43710;47.460;19.034;2022-12-07T06:24:51;22.65;;;18.40;;
57893;SDS011;43710;47.460;19.034;2022-12-07T06:27:54;25.33;;;18.48;;
57893;SDS011;43710;47.460;19.034;2022-12-07T06:30:57;22.73;;;17.98;;
57893;SDS011;43710;47.460;19.034;2022-12-07T06:34:05;27.45;;;19.85;;
57893;SDS011;43710;47.460;19.034;2022-12-07T06:37:10;26.92;;;20.35;;
57893;SDS011;43710;47.460;19.034;2022-12-07T06:40:13;31.12;;;22.15;;
57893;SDS011;43710;47.460;19.034;2022-12-07T06:43:15;31.17;;;21.80;;
57893;SDS011;43710;47.460;19.034;2022-12-07T06:46:17;28.80;;;22.33;;
57893;SDS011;43710;47.460;19.034;2022-12-07T06:49:19;28.38;;;20.77;;
57893;SDS011;43710;47.460;19.034;2022-12-07T06:52:22;28.27;;;22.40;;
57893;SDS011;43710;47.460;19.034;2022-12-07T06:55:25;29.15;;;22.80;;
57893;SDS011;43710;47.460;19.034;2022-12-07T06:58:27;29.35;;;21.80;;
57893;SDS011;43710;47.460;19.034;2022-12-07T07:01:29;28.40;;;21.37;;
57893;SDS011;43710;47.460;19.034;2022-12-07T07:04:32;27.48;;;20.00;;
57893;SDS011;43710;47.460;19.034;2022-12-07T07:07:35;27.65;;;20.73;;
57893;SDS011;43710;47.460;19.034;2022-12-07T07:10:57;48.72;;;18.92;;
57893;SDS011;43710;47.460;19.034;2022-12-07T07:13:59;23.17;;;18.45;;
57893;SDS011;43710;47.460;19.034;2022-12-07T07:17:04;21.55;;;17.15;;
57893;SDS011;43710;47.460;19.034;2022-12-07T07:20:06;21.27;;;16.65;;
57893;SDS011;43710;47.460;19.034;2022-12-07T07:23:09;20.92;;;16.50;;
57893;SDS011;43710;47.460;19.034;2022-12-07T07:26:11;19.20;;;14.30;;
57893;SDS011;43710;47.460;19.034;2022-12-07T07:29:13;19.00;;;14.82;;
57893;SDS011;43710;47.460;19.034;2022-12-07T07:32:15;19.05;;;13.82;;
57893;SDS011;43710;47.460;19.034;2022-12-07T07:35:18;18.48;;;14.27;;
57893;SDS011;43710;47.460;19.034;2022-12-07T07:38:20;17.15;;;13.60;;
57893;SDS011;43710;47.460;19.034;2022-12-07T07:41:23;20.08;;;14.40;;
57893;SDS011;43710;47.460;19.034;2022-12-07T07:44:26;20.23;;;14.35;;
57893;SDS011;43710;47.460;19.034;2022-12-07T07:47:36;20.27;;;14.63;;
57893;SDS011;43710;47.460;19.034;2022-12-07T07:50:38;19.90;;;15.50;;
57893;SDS011;43710;47.460;19.034;2022-12-07T07:53:40;18.20;;;14.73;;
57893;SDS011;43710;47.460;19.034;2022-12-07T07:56:43;20.17;;;15.65;;
57893;SDS011;43710;47.460;19.034;2022-12-07T07:59:45;22.25;;;15.80;;
57893;SDS011;43710;47.460;19.034;2022-12-07T08:02:51;20.88;;;15.00;;
57893;SDS011;43710;47.460;19.034;2022-12-07T08:05:53;21.85;;;15.80;;
57893;SDS011;43710;47.460;19.034;2022-12-07T08:08:56;19.40;;;15.13;;
57893;SDS011;43710;47.460;19.034;2022-12-07T08:12:01;20.37;;;14.50;;
57893;SDS011;43710;47.460;19.034;2022-12-07T08:15:04;20.27;;;15.27;;
57893;SDS011;43710;47.460;19.034;2022-12-07T08:18:07;17.85;;;14.13;;
57893;SDS011;43710;47.460;19.034;2022-12-07T08:21:11;19.73;;;15.02;;
57893;SDS011;43710;47.460;19.034;2022-12-07T08:24:15;21.05;;;13.90;;
57893;SDS011;43710;47.460;19.034;2022-12-07T08:27:18;18.80;;;14.18;;
57893;SDS011;43710;47.460;19.034;2022-12-07T08:30:20;20.92;;;14.55;;
57893;SDS011;43710;47.460;19.034;2022-12-07T08:33:23;19.40;;;14.18;;
57893;SDS011;43710;47.460;19.034;2022-12-07T08:36:26;20.45;;;15.20;;
57893;SDS011;43710;47.460;19.034;2022-12-07T08:39:28;19.15;;;14.07;;
57893;SDS011;43710;47.460;19.034;2022-12-07T08:42:33;25.15;;;14.82;;
57893;SDS011;43710;47.460;19.034;2022-12-07T08:45:42;19.23;;;14.60;;
57893;SDS011;43710;47.460;19.034;2022-12-07T08:48:57;19.37;;;14.73;;
57893;SDS011;43710;47.460;19.034;2022-12-07T08:52:03;19.83;;;14.65;;
57893;SDS011;43710;47.460;19.034;2022-12-07T08:55:08;21.73;;;16.12;;
57893;SDS011;43710;47.460;19.034;2022-12-07T08:58:12;18.48;;;15.20;;
57893;SDS011;43710;47.460;19.034;2022-12-07T09:01:15;18.85;;;14.82;;
57893;SDS011;43710;47.460;19.034;2022-12-07T09:04:17;20.45;;;15.32;;
57893;SDS011;43710;47.460;19.034;2022-12-07T09:07:20;20.08;;;14.32;;
57893;SDS011;43710;47.460;19.034;2022-12-07T09:10:22;20.20;;;15.05;;
57893;SDS011;43710;47.460;19.034;2022-12-07T09:13:25;18.75;;;14.65;;
57893;SDS011;43710;47.460;19.034;2022-12-07T09:16:27;18.98;;;14.90;;
57893;SDS011;43710;47.460;19.034;2022-12-07T09:19:30;21.00;;;15.13;;
57893;SDS011;43710;47.460;19.034;2022-12-07T09:22:32;19.30;;;14.57;;
57893;SDS011;43710;47.460;19.034;2022-12-07T09:25:35;20.42;;;14.77;;
57893;SDS011;43710;47.460;19.034;2022-12-07T09:28:37;19.83;;;15.60;;
57893;SDS011;43710;47.460;19.034;2022-12-07T09:31:40;19.50;;;14.85;;
57893;SDS011;43710;47.460;19.034;2022-12-07T09:34:42;17.55;;;13.88;;
57893;SDS011;43710;47.460;19.034;2022-12-07T09:37:45;16.23;;;12.57;;
57893;SDS011;43710;47.460;19.034;2022-12-07T09:40:47;19.33;;;14.77;;
57893;SDS011;43710;47.460;19.034;2022-12-07T09:43:50;16.25;;;12.13;;
57893;SDS011;43710;47.460;19.034;2022-12-07T09:46:54;15.35;;;12.48;;
57893;SDS011;43710;47.460;19.034;2022-12-07T09:50:10;15.35;;;11.85;;
57893;SDS011;43710;47.460;19.034;2022-12-07T09:53:17;15.27;;;11.48;;
57893;SDS011;43710;47.460;19.034;2022-12-07T09:56:28;13.20;;;9.95;;
57893;SDS011;43710;47.460;19.034;2022-12-07T09:59:32;13.15;;;10.18;;
57893;SDS011;43710;47.460;19.034;2022-12-07T10:02:39;12.52;;;9.70;;
57893;SDS011;43710;47.460;19.034;2022-12-07T10:05:49;13.15;;;10.40;;
57893;SDS011;43710;47.460;19.034;2022-12-07T10:08:53;13.02;;;9.90;;
57893;SDS011;43710;47.460;19.034;2022-12-07T10:12:13;11.68;;;9.52;;
57893;SDS011;43710;47.460;19.034;2022-12-07T10:15:15;13.95;;;9.93;;
57893;SDS011;43710;47.460;19.034;2022-12-07T10:21:37;13.80;;;10.55;;
57893;SDS011;43710;47.460;19.034;2022-12-07T10:24:40;15.43;;;10.80;;
57893;SDS011;43710;47.460;19.034;2022-12-07T10:27:44;14.57;;;10.93;;
57893;SDS011;43710;47.460;19.034;2022-12-07T10:31:01;15.70;;;11.90;;
57893;SDS011;43710;47.460;19.034;2022-12-07T10:34:14;16.00;;;10.85;;
57893;SDS011;43710;47.460;19.034;2022-12-07T10:37:24;13.93;;;10.45;;
57893;SDS011;43710;47.460;19.034;2022-12-07T10:40:34;14.10;;;9.87;;
57893;SDS011;43710;47.460;19.034;2022-12-07T10:43:51;10.05;;;7.87;;
57893;SDS011;43710;47.460;19.034;2022-12-07T10:56:43;11.45;;;7.75;;
57893;SDS011;43710;47.460;19.034;2022-12-07T11:06:34;12.95;;;7.32;;
57893;SDS011;43710;47.460;19.034;2022-12-07T11:09:49;12.15;;;7.40;;
57893;SDS011;43710;47.460;19.034;2022-12-07T11:13:14;8.93;;;7.10;;
57893;SDS011;43710;47.460;19.034;2022-12-07T11:23:24;12.37;;;8.30;;
57893;SDS011;43710;47.460;19.034;2022-12-07T11:26:45;12.90;;;8.52;;
57893;SDS011;43710;47.460;19.034;2022-12-07T11:39:37;9.98;;;7.60;;
57893;SDS011;43710;47.460;19.034;2022-12-07T11:42:51;10.95;;;8.20;;
57893;SDS011;43710;47.460;19.034;2022-12-07T11:46:04;10.68;;;7.43;;
57893;SDS011;43710;47.460;19.034;2022-12-07T11:49:16;10.15;;;7.60;;
57893;SDS011;43710;47.460;19.034;2022-12-07T11:52:27;9.63;;;7.63;;
57893;SDS011;43710;47.460;19.034;2022-12-07T12:02:00;10.77;;;8.27;;
57893;SDS011;43710;47.460;19.034;2022-12-07T12:05:18;11.05;;;8.32;;
57893;SDS011;43710;47.460;19.034;2022-12-07T12:15:33;10.60;;;8.02;;
57893;SDS011;43710;47.460;19.034;2022-12-07T12:18:58;9.32;;;7.00;;
57893;SDS011;43710;47.460;19.034;2022-12-07T12:22:38;11.43;;;7.87;;
57893;SDS011;43710;47.460;19.034;2022-12-07T12:25:54;8.45;;;6.97;;
57893;SDS011;43710;47.460;19.034;2022-12-07T12:29:05;10.15;;;7.28;;
57893;SDS011;43710;47.460;19.034;2022-12-07T12:32:12;10.93;;;7.82;;
57893;SDS011;43710;47.460;19.034;2022-12-07T12:42:18;9.77;;;7.32;;
57893;SDS011;43710;47.460;19.034;2022-12-07T12:45:25;10.80;;;7.80;;
57893;SDS011;43710;47.460;19.034;2022-12-07T12:48:29;9.68;;;7.75;;
57893;SDS011;43710;47.460;19.034;2022-12-07T12:51:38;9.98;;;7.30;;
57893;SDS011;43710;47.460;19.034;2022-12-07T12:55:16;11.18;;;7.93;;
57893;SDS011;43710;47.460;19.034;2022-12-07T13:08:15;10.75;;;8.30;;
57893;SDS011;43710;47.460;19.034;2022-12-07T13:11:33;10.25;;;8.48;;
57893;SDS011;43710;47.460;19.034;2022-12-07T13:14:55;11.70;;;8.40;;
57893;SDS011;43710;47.460;19.034;2022-12-07T13:18:00;11.93;;;8.85;;
57893;SDS011;43710;47.460;19.034;2022-12-07T13:24:09;13.27;;;8.20;;
57893;SDS011;43710;47.460;19.034;2022-12-07T13:27:15;9.70;;;7.53;;
57893;SDS011;43710;47.460;19.034;2022-12-07T13:30:21;11.25;;;7.10;;
57893;SDS011;43710;47.460;19.034;2022-12-07T13:33:24;13.50;;;7.50;;
57893;SDS011;43710;47.460;19.034;2022-12-07T13:36:33;12.57;;;7.50;;
57893;SDS011;43710;47.460;19.034;2022-12-07T13:39:45;11.35;;;8.15;;
57893;SDS011;43710;47.460;19.034;2022-12-07T13:42:57;11.07;;;7.30;;
57893;SDS011;43710;47.460;19.034;2022-12-07T13:46:00;10.13;;;7.47;;
57893;SDS011;43710;47.460;19.034;2022-12-07T13:49:02;11.15;;;7.62;;
57893;SDS011;43710;47.460;19.034;2022-12-07T13:52:28;11.52;;;7.80;;
57893;SDS011;43710;47.460;19.034;2022-12-07T13:55:32;12.30;;;7.82;;
57893;SDS011;43710;47.460;19.034;2022-12-07T13:58:34;9.95;;;7.62;;
57893;SDS011;43710;47.460;19.034;2022-12-07T14:01:36;10.70;;;7.65;;
57893;SDS011;43710;47.460;19.034;2022-12-07T14:04:39;12.35;;;7.57;;
57893;SDS011;43710;47.460;19.034;2022-12-07T14:11:01;15.27;;;7.70;;
57893;SDS011;43710;47.460;19.034;2022-12-07T14:14:03;10.80;;;7.60;;
57893;SDS011;43710;47.460;19.034;2022-12-07T14:17:16;12.68;;;8.02;;
57893;SDS011;43710;47.460;19.034;2022-12-07T14:20:34;11.38;;;8.18;;
57893;SDS011;43710;47.460;19.034;2022-12-07T14:23:41;11.90;;;7.80;;
57893;SDS011;43710;47.460;19.034;2022-12-07T14:26:44;11.95;;;8.00;;
57893;SDS011;43710;47.460;19.034;2022-12-07T14:29:48;12.10;;;8.43;;
57893;SDS011;43710;47.460;19.034;2022-12-07T14:32:52;10.98;;;8.20;;
57893;SDS011;43710;47.460;19.034;2022-12-07T14:35:57;12.68;;;8.10;;
57893;SDS011;43710;47.460;19.034;2022-12-07T14:39:00;12.50;;;9.18;;
57893;SDS011;43710;47.460;19.034;2022-12-07T14:42:02;12.45;;;8.73;;
57893;SDS011;43710;47.460;19.034;2022-12-07T14:45:05;15.10;;;9.88;;
57893;SDS011;43710;47.460;19.034;2022-12-07T14:48:11;14.20;;;9.18;;
57893;SDS011;43710;47.460;19.034;2022-12-07T14:51:36;16.17;;;9.13;;
57893;SDS011;43710;47.460;19.034;2022-12-07T14:55:01;16.30;;;9.55;;
57893;SDS011;43710;47.460;19.034;2022-12-07T14:58:03;14.70;;;9.10;;
57893;SDS011;43710;47.460;19.034;2022-12-07T15:01:06;17.52;;;10.20;;
57893;SDS011;43710;47.460;19.034;2022-12-07T15:04:08;15.93;;;9.02;;
57893;SDS011;43710;47.460;19.034;2022-12-07T15:07:14;14.13;;;8.35;;
57893;SDS011;43710;47.460;19.034;2022-12-07T15:10:22;13.20;;;8.82;;
57893;SDS011;43710;47.460;19.034;2022-12-07T15:13:26;13.40;;;8.40;;
57893;SDS011;43710;47.460;19.034;2022-12-07T15:16:46;13.40;;;8.90;;
57893;SDS011;43710;47.460;19.034;2022-12-07T15:20:11;19.75;;;9.80;;
57893;SDS011;43710;47.460;19.034;2022-12-07T15:23:15;18.70;;;9.87;;
57893;SDS011;43710;47.460;19.034;2022-12-07T15:26:17;17.33;;;11.27;;
57893;SDS011;43710;47.460;19.034;2022-12-07T15:29:19;18.52;;;11.25;;
57893;SDS011;43710;47.460;19.034;2022-12-07T15:32:24;16.55;;;10.90;;
57893;SDS011;43710;47.460;19.034;2022-12-07T15:35:26;16.98;;;10.50;;
57893;SDS011;43710;47.460;19.034;2022-12-07T15:38:29;18.27;;;12.30;;
57893;SDS011;43710;47.460;19.034;2022-12-07T15:41:52;22.30;;;12.68;;
57893;SDS011;43710;47.460;19.034;2022-12-07T15:44:54;19.40;;;12.75;;
57893;SDS011;43710;47.460;19.034;2022-12-07T15:48:06;27.42;;;18.02;;
57893;SDS011;43710;47.460;19.034;2022-12-07T15:51:28;35.80;;;21.48;;
57893;SDS011;43710;47.460;19.034;2022-12-07T15:54:32;24.20;;;15.25;;
57893;SDS011;43710;47.460;19.034;2022-12-07T15:57:35;28.98;;;16.60;;
57893;SDS011;43710;47.460;19.034;2022-12-07T16:00:38;29.70;;;18.42;;
57893;SDS011;43710;47.460;19.034;2022-12-07T16:03:41;32.78;;;15.85;;
57893;SDS011;43710;47.460;19.034;2022-12-07T16:06:43;28.77;;;16.05;;
57893;SDS011;43710;47.460;19.034;2022-12-07T16:09:46;34.85;;;15.90;;
57893;SDS011;43710;47.460;19.034;2022-12-07T16:12:49;25.92;;;14.93;;
57893;SDS011;43710;47.460;19.034;2022-12-07T16:15:51;22.23;;;14.93;;
57893;SDS011;43710;47.460;19.034;2022-12-07T16:18:55;22.25;;;15.20;;
57893;SDS011;43710;47.460;19.034;2022-12-07T16:21:57;22.58;;;14.15;;
57893;SDS011;43710;47.460;19.034;2022-12-07T16:25:00;26.75;;;19.35;;
57893;SDS011;43710;47.460;19.034;2022-12-07T16:28:03;26.00;;;18.17;;
57893;SDS011;43710;47.460;19.034;2022-12-07T16:31:06;29.25;;;19.62;;
57893;SDS011;43710;47.460;19.034;2022-12-07T16:34:11;29.05;;;17.40;;
57893;SDS011;43710;47.460;19.034;2022-12-07T16:37:13;21.42;;;15.27;;
57893;SDS011;43710;47.460;19.034;2022-12-07T16:40:16;21.48;;;15.25;;
